windsock image

Welcome to Bigfield Strip.

anemometer image
     

 Help for dials.  
 
Local Met:

Wind:   
10 Min average:  
226 ° / 9.3 kts (9.6)
228° / 9.0

Temperature:  
12.4°C C
Dew Point:  
10.8°C C
QNH:  
Trend:  
1019.2 mb mb
-0.4mb/hr
BigField Strip. This image updates approximately every minute, it can have a two minute delay.  
 

Humidity:  
90 %
Sunrise:   04:32z
Sunset:   19:30z
Updated:  
  UTC
 
   More met info, trends, radar, history etc. available here   

LUTON Metar   EGGW 020750Z AUTO 20009KT 9999 OVC006 11/11 Q1020
 
  TAF   2016/05/02 06:15 TAF EGGW 020458Z 0206/0306 21011KT 0300 FG VV/// BECMG 0206/0209 9999 NSW FEW012 SCT025 TEMPO 0209/0216 22015G25KT TEMPO 0213/0216 6000 RA BKN012 PROB30 TEMPO 0214/0215 3000 +RA BKN009 BECMG 0217/0220 27005KT
 
BENSON Metar   EGUB 020750Z AUTO 19011KT 9999 // FEW009/// OVC060/// 12/10 Q1020
 
  TAF   2016/04/29 15:33 TAF TAF EGUB 291624Z 2915/2921 CNL
 
Big Field view 1 icon   Big Field view 2 icon   Big Field view 3 icon   Chart AL3a in PDF icon   Chart AL3a in Word icon

WARNING:
This information is provided by the Airstrip unofficial weather station, DO NOT depend on the data provided here for any purpose.
This page is updated for latest Metars & TAF's every 5 minutes. Refresh the browser to check for the lastest.
Page designed for a minimum browser size of 1024x768.
© Copyright 2016 BigField Strip. This page auto generated 08:11 UTC - 02/05/2016   Contact Us
Valid HTML 4.01 Transitional     Windows uptime: 0 Days 5 Hours 39 Minutes 31 Seconds    WD started: 02:37 02/05/16    Free memory: 1534MB     Valid CSS!